Terminal Aerodrome Forecast
Issued by NWS Grand Forks, ND

Home | Current Version | Previous Version | Graphics & Text | Print | Product List | Glossary On
Versions: 1 2 3 4 5 6 7 8 9 10 11 12 13 14 15 16
000
FTUS43 KFGF 271720
TAFGFK
TAF
KGFK 271720Z 2718/2818 18018KT P6SM FEW180 BKN250
     FM280700 15010KT P6SM VCTS BKN050CB
     FM280900 15009KT 6SM -TSRA OVC015CB
     FM281100 15008KT P6SM VCTS OVC020CB
     FM281300 18008KT P6SM OVC015
     FM281600 28012KT P6SM BKN020=

USA.gov is the U.S. government's official web portal to all federal, state and local government web resources and services.